Time;durP1;ratioP1;P1;durP2;ratioP2;P2;SDS_P1;SDS_P2;PMS_P1;PMS_P2;Temp;Humidity;BMP_temperature;BMP_pressure;BME280_temperature;BME280_humidity;BME280_pressure;Samples;Min_cycle;Max_cycle;Signal;HPM_P1;HPM_P2
2021/11/14 00:00:30;;;;;;;44.37;27.83;;;7.70;99.90;;;;;;5066059;28;20189;-84
2021/11/14 00:02:58;;;;;;;44.03;27.87;;;7.70;99.90;;;;;;5075021;28;20174;-82
2021/11/14 00:05:25;;;;;;;45.67;27.50;;;7.70;99.90;;;;;;5048228;28;20264;-83
2021/11/14 00:07:51;;;;;;;44.63;28.57;;;7.60;99.90;;;;;;5076455;28;20624;-82
2021/11/14 00:10:16;;;;;;;41.47;27.83;;;7.60;99.90;;;;;;5070210;28;20223;-82
2021/11/14 00:12:42;;;;;;;43.40;28.17;;;7.60;99.90;;;;;;5033258;28;20169;-83
2021/11/14 00:15:09;;;;;;;46.70;27.47;;;7.70;99.90;;;;;;5066046;28;20173;-82
2021/11/14 00:17:35;;;;;;;45.07;28.17;;;7.70;99.90;;;;;;5041705;28;20222;-82
2021/11/14 00:20:06;;;;;;;46.03;27.20;;;8.10;99.90;;;;;;5058523;22;20682;-75
2021/11/14 00:22:32;;;;;;;48.57;28.30;;;7.70;99.90;;;;;;5013412;28;20171;-76
2021/11/14 00:25:00;;;;;;;47.70;28.80;;;7.80;99.90;;;;;;5038802;28;20170;-75
2021/11/14 00:27:29;;;;;;;44.90;29.00;;;7.70;99.90;;;;;;5030403;28;20169;-77
2021/11/14 00:29:55;;;;;;;40.70;27.43;;;7.70;99.90;;;;;;5031912;28;20272;-76
2021/11/14 00:32:21;;;;;;;48.90;30.27;;;7.70;99.90;;;;;;5032945;28;20585;-76
2021/11/14 00:34:49;;;;;;;47.20;28.83;;;7.70;99.90;;;;;;5014363;28;20205;-74
2021/11/14 00:37:16;;;;;;;45.20;27.83;;;7.60;99.90;;;;;;5032083;28;20170;-74
2021/11/14 00:39:42;;;;;;;45.33;29.53;;;7.60;99.90;;;;;;5032696;28;20191;-74
2021/11/14 00:42:08;;;;;;;42.90;28.13;;;7.60;99.90;;;;;;5032848;28;20226;-75
2021/11/14 00:44:33;;;;;;;41.20;27.77;;;7.60;99.90;;;;;;5032841;28;20178;-74
2021/11/14 00:46:59;;;;;;;44.13;28.40;;;7.60;99.90;;;;;;5032841;28;20555;-74
2021/11/14 00:49:25;;;;;;;49.17;29.33;;;7.60;99.90;;;;;;5032676;28;20214;-74
2021/11/14 00:51:51;;;;;;;45.73;26.87;;;7.60;99.90;;;;;;5032738;28;20283;-74
2021/11/14 00:54:16;;;;;;;43.10;26.90;;;7.50;99.90;;;;;;5032617;28;20185;-75
2021/11/14 00:56:42;;;;;;;46.13;28.17;;;7.50;99.90;;;;;;5032737;28;20166;-74
2021/11/14 00:59:08;;;;;;;43.80;27.97;;;7.40;99.90;;;;;;5014961;28;20208;-74
2021/11/14 01:01:34;;;;;;;48.43;29.20;;;7.50;99.90;;;;;;5032630;28;20695;-74
2021/11/14 01:04:01;;;;;;;43.27;27.37;;;7.40;99.90;;;;;;5015031;28;20189;-75
2021/11/14 01:06:27;;;;;;;39.03;26.43;;;7.40;99.90;;;;;;5014945;28;20183;-75
2021/11/14 01:08:53;;;;;;;45.23;28.37;;;7.40;99.90;;;;;;5035800;28;20210;-75
2021/11/14 01:11:20;;;;;;;43.97;27.67;;;7.40;99.90;;;;;;5036331;28;20259;-76
2021/11/14 01:13:46;;;;;;;51.93;29.40;;;7.40;99.90;;;;;;5036428;28;20253;-75
2021/11/14 01:16:15;;;;;;;50.20;30.07;;;7.40;99.90;;;;;;5036344;28;20175;-77
2021/11/14 01:18:41;;;;;;;45.87;28.20;;;7.30;99.90;;;;;;5035975;28;20641;-74
2021/11/14 01:21:09;;;;;;;41.40;28.23;;;7.30;99.90;;;;;;5036337;28;20549;-75
2021/11/14 01:23:35;;;;;;;42.93;26.77;;;7.30;99.90;;;;;;5036166;28;20206;-75
2021/11/14 01:26:02;;;;;;;42.10;26.80;;;7.30;99.90;;;;;;5036230;28;20178;-75
2021/11/14 01:28:28;;;;;;;42.30;26.10;;;7.30;99.90;;;;;;5035838;28;20184;-75
2021/11/14 01:30:57;;;;;;;43.77;27.80;;;7.40;99.90;;;;;;5035954;28;20656;-75
2021/11/14 01:33:26;;;;;;;41.33;25.37;;;7.40;99.90;;;;;;5036075;28;20170;-75
2021/11/14 01:35:55;;;;;;;43.47;27.93;;;7.40;99.90;;;;;;5036163;28;20174;-75
2021/11/14 01:38:21;;;;;;;46.17;27.67;;;7.30;99.90;;;;;;5035803;28;20257;-74
2021/11/14 01:40:53;;;;;;;51.87;30.50;;;7.30;99.90;;;;;;5017606;28;20317;-73
2021/11/14 01:43:22;;;;;;;47.73;29.13;;;7.30;99.90;;;;;;5018181;28;20559;-75
2021/11/14 01:45:49;;;;;;;48.67;29.90;;;7.20;99.90;;;;;;5035600;28;20261;-75
2021/11/14 01:48:14;;;;;;;42.77;28.00;;;7.20;99.90;;;;;;5035717;28;20186;-74
2021/11/14 01:50:41;;;;;;;42.73;27.60;;;7.30;99.90;;;;;;5017743;28;20212;-75
2021/11/14 01:53:08;;;;;;;42.00;27.13;;;7.30;99.90;;;;;;5035611;28;20645;-74
2021/11/14 01:55:36;;;;;;;45.73;27.03;;;7.30;99.90;;;;;;5018165;28;20623;-76
2021/11/14 01:58:02;;;;;;;45.10;28.07;;;7.40;99.90;;;;;;5017811;28;20233;-76
2021/11/14 02:00:30;;;;;;;38.33;25.33;;;7.40;99.90;;;;;;5035372;28;20199;-76
2021/11/14 02:02:57;;;;;;;42.07;26.50;;;7.40;99.90;;;;;;5027815;28;20232;-76
2021/11/14 02:05:26;;;;;;;52.63;30.30;;;7.40;99.90;;;;;;5017669;28;20252;-76
2021/11/14 02:07:53;;;;;;;50.53;30.83;;;7.40;99.90;;;;;;5035249;28;20300;-76
2021/11/14 02:10:20;;;;;;;51.80;31.57;;;7.50;99.90;;;;;;5017382;28;20199;-76
2021/11/14 02:12:46;;;;;;;52.00;31.67;;;7.40;99.90;;;;;;5035200;28;20546;-76
2021/11/14 02:15:12;;;;;;;49.60;28.17;;;7.40;99.90;;;;;;5035213;28;20175;-75
2021/11/14 02:17:38;;;;;;;45.17;28.07;;;7.40;99.90;;;;;;5035262;28;20742;-75
2021/11/14 02:20:06;;;;;;;41.67;27.03;;;7.40;99.90;;;;;;5034750;28;20244;-75
2021/11/14 02:22:32;;;;;;;43.60;27.80;;;7.40;99.90;;;;;;5035394;28;20171;-75
2021/11/14 02:24:58;;;;;;;43.17;27.33;;;7.40;99.90;;;;;;5017178;28;20541;-75
2021/11/14 02:27:24;;;;;;;54.17;30.17;;;7.60;99.90;;;;;;5034941;28;20178;-75
2021/11/14 02:29:50;;;;;;;51.63;29.10;;;7.60;99.90;;;;;;5034871;28;20198;-75
2021/11/14 02:32:16;;;;;;;49.80;29.33;;;7.60;99.90;;;;;;5034826;28;20205;-75
2021/11/14 02:34:42;;;;;;;48.60;28.90;;;7.60;99.90;;;;;;5034856;28;20609;-75
2021/11/14 02:37:08;;;;;;;47.27;27.77;;;7.70;99.90;;;;;;5034754;28;20649;-76
2021/11/14 02:39:35;;;;;;;48.33;29.00;;;7.70;99.90;;;;;;5034595;28;20195;-75
2021/11/14 02:42:01;;;;;;;54.47;30.40;;;7.60;99.90;;;;;;5034833;28;20653;-76
2021/11/14 02:44:27;;;;;;;50.90;30.20;;;7.60;99.90;;;;;;5034708;28;20229;-75
2021/11/14 02:46:53;;;;;;;52.60;30.80;;;7.60;99.90;;;;;;5034608;28;20182;-75
2021/11/14 02:49:19;;;;;;;53.27;30.67;;;7.60;99.90;;;;;;5034504;28;20570;-75
2021/11/14 02:51:44;;;;;;;50.27;29.33;;;7.60;99.90;;;;;;5034405;28;20211;-75
2021/11/14 02:54:10;;;;;;;48.47;29.00;;;7.60;99.90;;;;;;5034357;28;20525;-76
2021/11/14 02:56:37;;;;;;;51.37;30.87;;;7.60;99.90;;;;;;5034665;28;20230;-75
2021/11/14 02:59:03;;;;;;;43.83;28.87;;;7.60;99.90;;;;;;5034246;28;20333;-77
2021/11/14 03:01:38;;;;;;;44.20;28.03;;;7.60;99.90;;;;;;5034346;28;20193;-75
2021/11/14 03:04:05;;;;;;;47.37;29.37;;;7.70;99.90;;;;;;5034906;28;20680;-75
2021/11/14 03:06:31;;;;;;;42.90;27.70;;;7.70;99.90;;;;;;5034473;28;20252;-75
2021/11/14 03:08:57;;;;;;;48.30;29.03;;;7.80;99.90;;;;;;5034524;28;20202;-75
2021/11/14 03:11:23;;;;;;;48.93;29.23;;;7.80;99.90;;;;;;5034144;28;20726;-75
2021/11/14 03:13:49;;;;;;;51.87;31.77;;;7.80;99.90;;;;;;5034025;28;20264;-76
2021/11/14 03:16:18;;;;;;;48.17;28.97;;;7.70;99.90;;;;;;5031560;28;20261;-76
2021/11/14 03:18:43;;;;;;;46.43;28.03;;;7.70;99.90;;;;;;5031546;28;20187;-75
2021/11/14 03:21:09;;;;;;;45.13;29.17;;;7.70;99.90;;;;;;5029630;28;20224;-77
2021/11/14 03:23:36;;;;;;;44.30;27.77;;;7.70;99.90;;;;;;5031859;28;20515;-77
2021/11/14 03:26:03;;;;;;;43.60;28.60;;;7.60;99.90;;;;;;5014341;28;20265;-77
2021/11/14 03:28:29;;;;;;;47.60;29.13;;;7.60;99.90;;;;;;5032905;28;20558;-76
2021/11/14 03:30:58;;;;;;;47.83;28.43;;;7.60;99.90;;;;;;5033275;28;20202;-76
2021/11/14 03:33:25;;;;;;;45.80;28.90;;;7.70;99.90;;;;;;5033244;28;20205;-77
2021/11/14 03:35:57;;;;;;;45.97;29.53;;;7.70;99.90;;;;;;5032992;28;20174;-76
2021/11/14 03:38:35;;;;;;;48.20;29.07;;;7.70;99.90;;;;;;5033112;28;20179;-76
2021/11/14 03:41:03;;;;;;;46.60;28.80;;;7.60;99.90;;;;;;5015868;28;20739;-76
2021/11/14 03:43:30;;;;;;;42.77;27.87;;;7.70;99.90;;;;;;5033756;28;20231;-76
2021/11/14 03:45:56;;;;;;;48.37;28.67;;;7.70;99.90;;;;;;5033721;28;20184;-76
2021/11/14 03:48:23;;;;;;;47.40;28.70;;;7.80;99.90;;;;;;5033501;28;20254;-76
2021/11/14 03:50:48;;;;;;;44.20;27.73;;;7.70;99.90;;;;;;5033225;28;20202;-76
2021/11/14 03:53:14;;;;;;;51.00;29.70;;;7.70;99.90;;;;;;5033483;28;20209;-76
2021/11/14 03:55:41;;;;;;;49.43;29.47;;;7.70;99.90;;;;;;5033341;28;20183;-77
2021/11/14 03:58:08;;;;;;;51.97;31.13;;;7.70;99.90;;;;;;5033347;28;20182;-76
2021/11/14 04:00:38;;;;;;;46.70;29.40;;;7.70;99.90;;;;;;5033223;28;20202;-76
2021/11/14 04:03:05;;;;;;;45.93;28.57;;;7.60;99.90;;;;;;5015524;28;20175;-76
2021/11/14 04:05:31;;;;;;;50.67;30.17;;;7.70;99.90;;;;;;5015618;28;20185;-76
2021/11/14 04:08:00;;;;;;;47.93;29.50;;;7.70;99.90;;;;;;5030845;28;20175;-76
2021/11/14 04:10:27;;;;;;;43.37;28.60;;;7.60;99.90;;;;;;5033084;28;20202;-76
2021/11/14 04:12:53;;;;;;;49.67;29.37;;;7.70;99.90;;;;;;5015639;28;20610;-76
2021/11/14 04:15:19;;;;;;;44.53;28.03;;;7.70;99.90;;;;;;5033015;28;20197;-76
2021/11/14 04:17:45;;;;;;;43.90;27.33;;;7.70;99.90;;;;;;5033087;28;20209;-77
2021/11/14 04:20:13;;;;;;;42.03;27.20;;;7.70;99.90;;;;;;5032984;28;20215;-76
2021/11/14 04:22:40;;;;;;;41.87;27.40;;;7.70;99.90;;;;;;5015428;28;20203;-76
2021/11/14 04:25:08;;;;;;;42.80;28.13;;;7.70;99.90;;;;;;5032967;28;20205;-74
2021/11/14 04:27:34;;;;;;;37.93;25.93;;;7.70;99.90;;;;;;5032946;28;20197;-74
2021/11/14 04:30:00;;;;;;;38.47;25.43;;;7.80;99.90;;;;;;5032878;28;20245;-74
2021/11/14 04:32:26;;;;;;;39.37;26.77;;;7.80;99.90;;;;;;5032869;28;20202;-74
2021/11/14 04:34:51;;;;;;;40.47;26.17;;;7.80;99.90;;;;;;5033009;28;20182;-75
2021/11/14 04:37:17;;;;;;;37.47;25.37;;;7.70;99.90;;;;;;5033197;28;20182;-74
2021/11/14 04:39:42;;;;;;;37.00;25.37;;;7.70;99.90;;;;;;5015168;28;20245;-75
2021/11/14 04:42:08;;;;;;;39.23;25.93;;;7.80;99.90;;;;;;5015798;28;20688;-74
2021/11/14 04:44:37;;;;;;;39.47;26.53;;;7.80;99.90;;;;;;5036818;28;20189;-75
2021/11/14 04:47:03;;;;;;;42.50;27.93;;;7.70;99.90;;;;;;5036813;28;20217;-74
2021/11/14 04:49:29;;;;;;;41.40;27.57;;;7.70;99.90;;;;;;5018867;28;20273;-75
2021/11/14 04:51:54;;;;;;;41.47;26.57;;;7.70;99.90;;;;;;5018951;28;20205;-75
2021/11/14 04:54:21;;;;;;;37.87;26.27;;;7.70;99.90;;;;;;5036979;28;20538;-75
2021/11/14 04:56:49;;;;;;;40.73;26.13;;;7.70;99.90;;;;;;5036666;28;20257;-75
2021/11/14 04:59:15;;;;;;;43.43;27.03;;;7.70;99.90;;;;;;5036440;28;20205;-75
2021/11/14 05:01:41;;;;;;;43.50;28.30;;;7.60;99.90;;;;;;5034554;28;20332;-75
2021/11/14 05:04:07;;;;;;;46.77;28.57;;;7.60;99.90;;;;;;5034990;28;20210;-76
2021/11/14 05:06:32;;;;;;;38.73;26.33;;;7.60;99.90;;;;;;5034646;28;20182;-75
2021/11/14 05:08:59;;;;;;;38.03;26.07;;;7.60;99.90;;;;;;5034964;28;20284;-75
2021/11/14 05:11:26;;;;;;;36.63;25.47;;;7.60;99.90;;;;;;5017374;28;20208;-75
2021/11/14 05:13:52;;;;;;;37.07;25.00;;;7.70;99.90;;;;;;5036346;28;20190;-75
2021/11/14 05:16:17;;;;;;;43.47;27.43;;;7.70;99.90;;;;;;5035461;28;20240;-75
2021/11/14 05:18:43;;;;;;;42.80;27.37;;;7.70;99.90;;;;;;5018347;28;20638;-75
2021/11/14 05:21:09;;;;;;;38.00;26.03;;;7.70;99.90;;;;;;5036230;28;20188;-76
2021/11/14 05:23:36;;;;;;;40.93;27.13;;;7.70;99.90;;;;;;5036216;28;20184;-75
2021/11/14 05:26:02;;;;;;;37.47;26.00;;;7.70;99.90;;;;;;5036190;28;20523;-75
2021/11/14 05:28:27;;;;;;;43.57;28.53;;;7.70;99.90;;;;;;5035854;28;20190;-75
2021/11/14 05:30:53;;;;;;;44.93;28.87;;;7.70;99.90;;;;;;5036040;28;20208;-75
2021/11/14 05:33:19;;;;;;;44.97;28.07;;;7.70;99.90;;;;;;5036299;28;20181;-75
2021/11/14 05:35:45;;;;;;;42.33;27.27;;;7.60;99.90;;;;;;5035956;28;20641;-75
2021/11/14 05:38:11;;;;;;;45.60;28.60;;;7.70;99.90;;;;;;5035861;28;20170;-75
2021/11/14 05:40:37;;;;;;;39.93;28.10;;;7.60;99.90;;;;;;5035688;28;20659;-75
2021/11/14 05:43:03;;;;;;;59.73;32.67;;;7.60;99.90;;;;;;5035856;28;20174;-76
2021/11/14 05:45:28;;;;;;;55.77;32.20;;;7.60;99.90;;;;;;5035734;28;20637;-76
2021/11/14 05:47:54;;;;;;;63.33;32.27;;;7.60;99.90;;;;;;5035813;28;20354;-75
2021/11/14 05:50:20;;;;;;;51.70;29.73;;;7.60;99.90;;;;;;5017834;28;20256;-75
2021/11/14 05:52:46;;;;;;;56.63;31.47;;;7.60;99.90;;;;;;5035132;28;20167;-76
2021/11/14 05:55:12;;;;;;;48.33;29.87;;;7.60;99.90;;;;;;5035726;28;20253;-76
2021/11/14 06:00:11;;;;;;;60.63;32.93;;;7.60;99.90;;;;;;5035465;28;20269;-74
2021/11/14 06:02:42;;;;;;;59.43;32.23;;;7.60;99.90;;;;;;5035448;28;20174;-75
2021/11/14 06:07:34;;;;;;;62.60;32.80;;;7.50;99.90;;;;;;5035777;28;20178;-75
2021/11/14 06:10:01;;;;;;;56.83;31.43;;;7.60;99.90;;;;;;5035236;28;20239;-75
2021/11/14 06:12:30;;;;;;;60.07;33.33;;;7.60;99.90;;;;;;5033396;28;20193;-75
2021/11/14 06:14:56;;;;;;;57.10;31.30;;;7.50;99.90;;;;;;5034893;28;20241;-75
2021/11/14 06:17:22;;;;;;;64.23;33.17;;;7.60;99.90;;;;;;5017509;28;20177;-75
2021/11/14 06:19:48;;;;;;;57.50;31.50;;;7.60;99.90;;;;;;5042016;28;20225;-75
2021/11/14 06:22:18;;;;;;;56.23;31.93;;;7.50;99.90;;;;;;5033022;28;20639;-75
2021/11/14 06:24:45;;;;;;;57.97;30.50;;;7.50;99.90;;;;;;5046608;28;20174;-74
2021/11/14 06:27:11;;;;;;;54.80;31.17;;;7.50;99.90;;;;;;5016213;28;20560;-76
2021/11/14 06:29:37;;;;;;;50.10;29.97;;;7.50;99.90;;;;;;5050198;28;20260;-76
2021/11/14 06:32:03;;;;;;;52.57;30.87;;;7.50;99.90;;;;;;5035747;28;20201;-76
2021/11/14 06:34:29;;;;;;;51.63;29.63;;;7.60;99.90;;;;;;5046250;28;20579;-75
2021/11/14 06:36:54;;;;;;;50.90;29.23;;;7.60;99.90;;;;;;5044055;28;20181;-76
2021/11/14 06:39:20;;;;;;;52.37;30.10;;;7.70;99.90;;;;;;5035445;28;20190;-75
2021/11/14 06:41:46;;;;;;;58.67;31.87;;;7.70;99.90;;;;;;5045648;28;20174;-75
2021/11/14 06:46:44;;;;;;;58.93;30.80;;;7.60;99.90;;;;;;5059306;22;20313;-82
2021/11/14 06:49:10;;;;;;;56.63;30.40;;;7.70;99.90;;;;;;5046229;28;20174;-82
2021/11/14 06:51:35;;;;;;;59.00;30.37;;;7.60;99.90;;;;;;5048573;28;20237;-81
2021/11/14 06:54:01;;;;;;;63.70;33.13;;;7.60;99.90;;;;;;5039418;28;20229;-81
2021/11/14 06:56:27;;;;;;;63.13;31.60;;;7.70;99.90;;;;;;5050810;28;20225;-81
2021/11/14 06:58:52;;;;;;;57.10;30.17;;;7.60;99.90;;;;;;5061358;28;20185;-82
2021/11/14 07:01:18;;;;;;;59.10;30.00;;;7.60;99.90;;;;;;5063330;28;20540;-81
2021/11/14 07:03:44;;;;;;;63.03;31.67;;;7.70;99.90;;;;;;5061610;28;20235;-82
2021/11/14 07:06:09;;;;;;;60.73;31.90;;;7.70;99.90;;;;;;5062603;28;20201;-81
2021/11/14 07:08:35;;;;;;;65.13;31.30;;;7.70;99.90;;;;;;5057407;28;20646;-78
2021/11/14 07:11:02;;;;;;;65.30;32.40;;;7.70;99.90;;;;;;5064789;28;20598;-82
2021/11/14 07:13:27;;;;;;;66.80;33.00;;;7.70;99.90;;;;;;5061205;28;20177;-81
2021/11/14 07:15:53;;;;;;;67.63;33.77;;;7.70;99.90;;;;;;5062468;28;20639;-82
2021/11/14 07:18:19;;;;;;;65.60;32.33;;;7.70;99.90;;;;;;5063576;28;20178;-81
2021/11/14 07:20:45;;;;;;;67.80;32.57;;;7.80;99.90;;;;;;5061889;28;20182;-82
2021/11/14 07:23:11;;;;;;;59.57;30.87;;;7.70;99.90;;;;;;5064218;28;20652;-81
2021/11/14 07:25:37;;;;;;;70.13;33.27;;;7.70;99.90;;;;;;5064758;28;20220;-81
2021/11/14 07:28:03;;;;;;;72.07;31.97;;;7.70;99.90;;;;;;5061938;28;20201;-81
2021/11/14 07:30:29;;;;;;;67.70;31.83;;;7.70;99.90;;;;;;5063424;28;20185;-81
2021/11/14 07:32:55;;;;;;;69.63;32.60;;;7.60;99.90;;;;;;5064217;28;20170;-81
2021/11/14 07:35:24;;;;;;;69.50;31.67;;;7.60;99.90;;;;;;5065207;28;20201;-81
2021/11/14 07:37:50;;;;;;;59.50;29.20;;;7.70;99.90;;;;;;5061860;28;20178;-82
2021/11/14 07:40:17;;;;;;;66.87;31.87;;;7.60;99.90;;;;;;5063649;28;20235;-81
2021/11/14 07:42:44;;;;;;;65.90;32.07;;;7.60;99.90;;;;;;5054267;28;20186;-82
2021/11/14 07:45:12;;;;;;;67.63;31.90;;;7.60;99.90;;;;;;5061363;28;20596;-82
2021/11/14 07:47:38;;;;;;;65.90;31.63;;;7.60;99.90;;;;;;5061923;28;20176;-81
2021/11/14 07:50:05;;;;;;;70.40;31.63;;;7.60;99.90;;;;;;5062638;28;20181;-81
2021/11/14 07:52:31;;;;;;;69.07;32.23;;;7.60;99.90;;;;;;5063657;28;20261;-82
2021/11/14 07:54:58;;;;;;;64.67;30.83;;;7.60;99.90;;;;;;5063402;28;20573;-81
2021/11/14 07:57:25;;;;;;;64.07;31.47;;;7.60;99.90;;;;;;5064521;28;20566;-81
2021/11/14 07:59:51;;;;;;;64.60;30.50;;;7.60;99.90;;;;;;5059166;28;20667;-81
2021/11/14 08:02:17;;;;;;;61.37;29.07;;;7.70;99.90;;;;;;5062225;28;20186;-81
2021/11/14 08:04:42;;;;;;;60.70;27.73;;;7.60;99.90;;;;;;5062871;28;20208;-82
2021/11/14 08:07:08;;;;;;;61.93;29.43;;;7.60;99.90;;;;;;5063460;28;20640;-83
2021/11/14 08:09:38;;;;;;;61.60;28.10;;;7.60;99.90;;;;;;5062094;28;20213;-83
2021/11/14 08:12:04;;;;;;;63.10;28.67;;;7.60;99.90;;;;;;5057686;28;20202;-82
2021/11/14 08:14:30;;;;;;;65.83;28.80;;;7.60;99.90;;;;;;5049748;28;20174;-83
2021/11/14 08:16:55;;;;;;;58.73;28.67;;;7.60;99.90;;;;;;5044902;28;20176;-83
2021/11/14 08:19:21;;;;;;;60.47;27.17;;;7.60;99.90;;;;;;5046170;28;20182;-81
2021/11/14 08:21:47;;;;;;;56.77;27.40;;;7.70;99.90;;;;;;5042800;28;20193;-82
2021/11/14 08:24:12;;;;;;;66.53;29.50;;;7.70;99.90;;;;;;5041992;28;20183;-82
2021/11/14 08:26:38;;;;;;;61.00;28.90;;;7.70;99.90;;;;;;5042267;28;20292;-80
2021/11/14 08:29:04;;;;;;;71.77;34.53;;;7.80;99.90;;;;;;5040361;28;20641;-81
2021/11/14 08:31:29;;;;;;;56.77;28.73;;;7.70;99.90;;;;;;5040435;28;20204;-82
2021/11/14 08:33:56;;;;;;;58.67;28.70;;;7.80;99.90;;;;;;5040004;28;20179;-82
2021/11/14 08:36:26;;;;;;;55.37;27.97;;;7.70;99.90;;;;;;5039711;28;20683;-83
2021/11/14 08:38:52;;;;;;;57.50;28.97;;;7.70;99.90;;;;;;5039066;28;20195;-80
2021/11/14 08:41:18;;;;;;;54.73;27.30;;;7.70;99.90;;;;;;5040936;28;20657;-81
2021/11/14 08:43:44;;;;;;;57.17;27.60;;;7.90;99.90;;;;;;5042416;28;20182;-82
2021/11/14 08:46:10;;;;;;;53.70;26.07;;;7.90;99.90;;;;;;5037793;28;20216;-82
2021/11/14 08:48:37;;;;;;;52.97;27.43;;;7.90;99.90;;;;;;5039122;28;20185;-81
2021/11/14 08:51:04;;;;;;;47.97;26.20;;;7.90;99.90;;;;;;5056907;28;20202;-81
2021/11/14 08:53:29;;;;;;;43.57;25.60;;;7.90;99.90;;;;;;5040077;28;20206;-82
2021/11/14 08:55:56;;;;;;;47.47;25.47;;;8.00;99.90;;;;;;5058076;28;20195;-81
2021/11/14 08:58:23;;;;;;;51.13;26.77;;;8.00;99.90;;;;;;5040327;28;20185;-81
2021/11/14 09:00:49;;;;;;;49.43;25.97;;;8.00;99.90;;;;;;5035197;28;20550;-81
2021/11/14 09:03:15;;;;;;;47.43;25.60;;;8.00;99.90;;;;;;5041862;28;20181;-84
2021/11/14 09:05:41;;;;;;;48.17;26.80;;;8.00;99.90;;;;;;5047485;28;20202;-82
2021/11/14 09:08:07;;;;;;;41.90;23.97;;;8.10;99.90;;;;;;5063110;28;20664;-81
2021/11/14 09:10:34;;;;;;;40.90;24.83;;;8.00;99.90;;;;;;5043532;28;20230;-82
2021/11/14 09:13:01;;;;;;;45.53;26.10;;;8.00;99.90;;;;;;5041779;28;20196;-81
2021/11/14 09:15:29;;;;;;;44.50;24.67;;;8.00;99.90;;;;;;5043666;28;20202;-82
2021/11/14 09:17:56;;;;;;;44.93;24.43;;;8.00;99.90;;;;;;5042586;28;20174;-83
2021/11/14 09:20:23;;;;;;;46.33;25.77;;;8.00;99.90;;;;;;5056575;28;20550;-81
2021/11/14 09:22:48;;;;;;;45.40;26.13;;;7.90;99.90;;;;;;5036736;28;20193;-81
2021/11/14 09:25:14;;;;;;;44.93;25.57;;;8.00;99.90;;;;;;5042417;28;20195;-81
2021/11/14 09:27:40;;;;;;;45.33;25.53;;;8.10;99.90;;;;;;5044928;28;20233;-82
2021/11/14 09:30:08;;;;;;;50.30;27.97;;;8.10;99.90;;;;;;5046158;28;20198;-80
2021/11/14 09:32:35;;;;;;;46.37;27.10;;;8.10;99.90;;;;;;5047899;28;20260;-81
2021/11/14 09:35:02;;;;;;;42.20;26.30;;;8.20;99.90;;;;;;5046948;28;20201;-81
2021/11/14 09:37:28;;;;;;;40.73;26.03;;;8.10;99.90;;;;;;5046820;28;20189;-81
2021/11/14 09:39:53;;;;;;;37.50;24.07;;;8.10;99.90;;;;;;5043276;28;20181;-81
2021/11/14 09:42:23;;;;;;;42.10;24.93;;;8.20;99.90;;;;;;5046066;28;20178;-80
2021/11/14 09:44:48;;;;;;;33.30;23.13;;;8.40;99.90;;;;;;5043949;28;20227;-81
2021/11/14 09:47:17;;;;;;;39.73;24.33;;;8.30;99.90;;;;;;5050479;28;20174;-80
2021/11/14 09:49:43;;;;;;;36.83;23.87;;;8.30;99.90;;;;;;5055944;28;20179;-82
2021/11/14 09:52:10;;;;;;;37.37;24.90;;;8.30;99.90;;;;;;5047974;28;20194;-80
2021/11/14 09:54:38;;;;;;;38.73;24.80;;;8.30;99.90;;;;;;5048662;28;20178;-82
2021/11/14 09:57:05;;;;;;;37.67;24.40;;;8.30;99.90;;;;;;5056864;28;20628;-81
2021/11/14 09:59:30;;;;;;;42.97;26.23;;;8.30;99.90;;;;;;5047279;28;20180;-80
2021/11/14 10:01:58;;;;;;;41.13;24.47;;;8.40;99.90;;;;;;5043239;28;20667;-81
2021/11/14 10:04:24;;;;;;;43.43;25.83;;;8.40;99.90;;;;;;5053643;28;20198;-81
2021/11/14 10:07:06;;;;;;;39.83;26.27;;;8.40;99.90;;;;;;5058385;28;20193;-84
2021/11/14 10:09:53;;;;;;;44.03;26.77;;;8.40;99.90;;;;;;5045963;28;20181;-84
2021/11/14 10:12:22;;;;;;;44.03;28.20;;;8.50;99.90;;;;;;5046378;28;20297;-84
2021/11/14 10:15:04;;;;;;;43.47;26.90;;;8.50;99.90;;;;;;5046085;28;20284;-83
2021/11/14 10:17:30;;;;;;;45.20;26.80;;;8.50;99.90;;;;;;5050427;28;20174;-83
2021/11/14 10:20:05;;;;;;;54.70;28.50;;;8.50;99.90;;;;;;5046341;28;20197;-83
2021/11/14 10:22:32;;;;;;;37.97;25.13;;;8.50;99.90;;;;;;5048832;28;20235;-82
2021/11/14 10:24:59;;;;;;;41.20;25.53;;;8.50;99.90;;;;;;5047778;28;20203;-83
2021/11/14 10:27:27;;;;;;;32.83;22.40;;;8.60;99.90;;;;;;5047159;28;20204;-82
2021/11/14 10:29:54;;;;;;;38.97;25.33;;;8.60;99.90;;;;;;5048748;28;20182;-82
2021/11/14 10:32:20;;;;;;;31.73;22.40;;;8.60;99.90;;;;;;5047296;28;20254;-83
2021/11/14 10:34:51;;;;;;;31.20;21.40;;;8.70;99.90;;;;;;5049108;28;20186;-82
2021/11/14 10:37:21;;;;;;;30.83;20.60;;;8.70;99.90;;;;;;5048427;28;20177;-83
2021/11/14 10:39:52;;;;;;;30.23;20.37;;;8.60;99.90;;;;;;5047082;28;20265;-80
2021/11/14 10:42:20;;;;;;;31.83;21.20;;;8.60;99.90;;;;;;5046750;28;20193;-81
2021/11/14 10:44:52;;;;;;;26.93;19.43;;;8.80;99.90;;;;;;5048159;28;20209;-82
2021/11/14 10:47:23;;;;;;;27.53;18.53;;;8.70;99.90;;;;;;5047453;28;20217;-82
2021/11/14 10:50:11;;;;;;;25.97;18.37;;;8.70;99.90;;;;;;5045563;28;20324;-82
2021/11/14 10:52:37;;;;;;;31.23;19.47;;;8.80;99.90;;;;;;5046624;28;20198;-83
2021/11/14 10:55:09;;;;;;;27.80;18.23;;;8.80;99.90;;;;;;5045737;28;20198;-83
2021/11/14 10:57:37;;;;;;;25.73;18.50;;;8.90;99.90;;;;;;5047148;28;20239;-82
2021/11/14 11:00:11;;;;;;;27.53;19.10;;;8.90;99.90;;;;;;5047343;28;20184;-83
2021/11/14 11:02:41;;;;;;;26.90;19.20;;;9.00;99.90;;;;;;5044808;28;20192;-82
2021/11/14 11:05:15;;;;;;;29.70;18.50;;;9.00;99.90;;;;;;5062385;28;20551;-83
2021/11/14 11:08:08;;;;;;;31.30;19.37;;;9.00;99.90;;;;;;5047102;28;20181;-83
2021/11/14 11:10:39;;;;;;;26.53;18.37;;;9.10;99.90;;;;;;5045077;28;20171;-82
2021/11/14 11:13:14;;;;;;;28.30;19.30;;;9.00;99.90;;;;;;5045048;28;20174;-82
2021/11/14 11:15:42;;;;;;;26.97;17.90;;;9.10;99.90;;;;;;5046644;28;20189;-83
2021/11/14 11:18:18;;;;;;;26.50;18.27;;;9.20;99.90;;;;;;5043410;28;20177;-82
2021/11/14 11:20:49;;;;;;;25.00;17.33;;;9.10;99.90;;;;;;5045211;28;20182;-82
2021/11/14 11:23:17;;;;;;;24.30;17.80;;;9.20;99.90;;;;;;5044964;28;20257;-82
2021/11/14 11:25:47;;;;;;;26.40;18.37;;;9.10;99.90;;;;;;5044787;28;20198;-83
2021/11/14 11:28:33;;;;;;;25.43;17.40;;;9.10;99.90;;;;;;5042861;28;20210;-82
2021/11/14 11:31:13;;;;;;;27.17;18.47;;;9.10;99.90;;;;;;5044200;28;20194;-82
2021/11/14 11:33:45;;;;;;;23.83;17.37;;;9.20;99.90;;;;;;5042397;28;20198;-82
2021/11/14 11:36:13;;;;;;;26.50;18.50;;;9.10;99.90;;;;;;5045085;28;20205;-81
2021/11/14 11:38:43;;;;;;;25.60;17.57;;;9.10;99.90;;;;;;5042037;28;21285;-82
2021/11/14 11:41:11;;;;;;;25.73;17.23;;;9.10;99.90;;;;;;5039580;28;20171;-83
2021/11/14 11:43:37;;;;;;;27.10;17.83;;;9.10;99.90;;;;;;5044619;28;20236;-83
2021/11/14 11:46:08;;;;;;;25.60;17.00;;;9.00;99.90;;;;;;5042541;28;20680;-83
2021/11/14 11:48:39;;;;;;;22.77;15.87;;;9.40;99.90;;;;;;5043505;28;20281;-83
2021/11/14 11:51:10;;;;;;;23.43;16.80;;;9.00;99.90;;;;;;5043453;28;20261;-83
2021/11/14 11:53:37;;;;;;;22.07;16.60;;;9.00;99.90;;;;;;5043799;28;20609;-82
2021/11/14 11:56:14;;;;;;;21.67;15.67;;;8.90;99.90;;;;;;5044233;28;20746;-82
2021/11/14 11:58:41;;;;;;;20.93;15.77;;;9.00;99.90;;;;;;5043983;28;20177;-82
2021/11/14 12:01:18;;;;;;;24.33;16.23;;;8.90;99.90;;;;;;5044612;28;20190;-81
2021/11/14 12:03:43;;;;;;;25.13;17.30;;;8.80;99.90;;;;;;5044405;28;20192;-83
2021/11/14 12:06:27;;;;;;;26.27;16.93;;;8.80;99.90;;;;;;5044771;28;20189;-83
2021/11/14 12:08:55;;;;;;;25.73;17.40;;;8.90;99.90;;;;;;5043235;28;20189;-83
2021/11/14 12:11:24;;;;;;;26.43;17.93;;;8.80;99.90;;;;;;5043654;28;20200;-83
2021/11/14 12:13:50;;;;;;;24.97;15.67;;;8.80;99.90;;;;;;5041491;28;20171;-83
2021/11/14 12:16:34;;;;;;;22.77;16.20;;;8.80;99.90;;;;;;5043173;28;20202;-82
2021/11/14 12:19:02;;;;;;;23.27;15.37;;;8.90;99.90;;;;;;5033503;28;20193;-82
2021/11/14 12:21:30;;;;;;;25.30;15.10;;;8.90;99.90;;;;;;5043044;28;20182;-81
2021/11/14 12:24:00;;;;;;;19.83;15.13;;;8.90;99.90;;;;;;5043592;28;20182;-82
2021/11/14 12:26:43;;;;;;;19.77;14.50;;;8.90;99.90;;;;;;5042534;28;20225;-82
2021/11/14 12:29:09;;;;;;;21.07;15.10;;;8.90;99.90;;;;;;5043917;28;20177;-82
2021/11/14 12:31:50;;;;;;;23.57;15.47;;;8.90;99.90;;;;;;5042934;28;20209;-82
2021/11/14 12:34:31;;;;;;;20.37;14.83;;;9.00;99.90;;;;;;5044070;28;20204;-82
2021/11/14 12:37:13;;;;;;;20.60;15.63;;;8.90;99.90;;;;;;5049443;28;20190;-82
2021/11/14 12:39:42;;;;;;;21.30;14.60;;;9.00;99.90;;;;;;5049328;28;20173;-82
2021/11/14 12:42:17;;;;;;;24.40;16.30;;;8.90;99.90;;;;;;5047082;28;20594;-83
2021/11/14 12:44:52;;;;;;;22.07;15.50;;;9.00;99.90;;;;;;5046576;28;20218;-82